Time;durP1;ratioP1;P1;durP2;ratioP2;P2;SDS_P1;SDS_P2;PMS_P1;PMS_P2;Temp;Humidity;BMP_temperature;BMP_pressure;BME280_temperature;BME280_humidity;BME280_pressure;Samples;Min_cycle;Max_cycle;Signal;HPM_P1;HPM_P2
2022/10/09 00:00:34;;;;;;;;;;;12.90;99.90;;;;;;5013014;28;20004;-75
2022/10/09 00:03:00;;;;;;;;;;;12.90;99.90;;;;;;5012951;28;20245;-76
2022/10/09 00:05:26;;;;;;;;;;;12.90;99.90;;;;;;5013011;28;19906;-74
2022/10/09 00:07:52;;;;;;;;;;;12.90;99.90;;;;;;5013019;28;19912;-74
2022/10/09 00:10:18;;;;;;;;;;;13.00;99.90;;;;;;5012921;28;19981;-75
2022/10/09 00:12:44;;;;;;;;;;;13.00;99.90;;;;;;5012899;28;19944;-75
2022/10/09 00:15:09;;;;;;;;;;;13.00;99.90;;;;;;4995309;28;19956;-76
2022/10/09 00:17:35;;;;;;;;;;;13.00;99.90;;;;;;5012810;28;19921;-75
2022/10/09 00:20:00;;;;;;;;;;;13.00;99.90;;;;;;5012641;28;19910;-75
2022/10/09 00:22:26;;;;;;;;;;;13.00;99.90;;;;;;5012153;28;20262;-75
2022/10/09 00:24:52;;;;;;;;;;;13.00;99.90;;;;;;5013094;28;20384;-75
2022/10/09 00:27:17;;;;;;;;;;;13.00;99.90;;;;;;4995227;28;19988;-75
2022/10/09 00:29:43;;;;;;;;;;;13.00;99.90;;;;;;5012662;28;19905;-75
2022/10/09 00:32:08;;;;;;;;;;;12.90;99.90;;;;;;5012551;28;20394;-75
2022/10/09 00:34:34;;;;;;;;;;;13.00;99.90;;;;;;5012477;28;19912;-75
2022/10/09 00:36:59;;;;;;;;;;;12.90;99.90;;;;;;5012713;28;19932;-74
2022/10/09 00:39:25;;;;;;;;;;;12.90;99.90;;;;;;5012525;28;19967;-76
2022/10/09 00:41:50;;;;;;;;;;;12.90;99.90;;;;;;4994746;28;19960;-75
2022/10/09 00:44:35;;;;;;;;;;;12.90;99.90;;;;;;4995022;28;19912;-75
2022/10/09 00:47:00;;;;;;;;;;;12.90;99.90;;;;;;4994868;28;20000;-75
2022/10/09 00:49:27;;;;;;;;;;;12.90;99.90;;;;;;5012489;28;19988;-75
2022/10/09 00:51:53;;;;;;;;;;;12.90;99.90;;;;;;5012468;28;19960;-76
2022/10/09 00:54:21;;;;;;;;;;;12.90;99.90;;;;;;5012497;28;20372;-75
2022/10/09 00:56:47;;;;;;;;;;;12.90;99.90;;;;;;5012175;28;20415;-75
2022/10/09 00:59:13;;;;;;;;;;;12.90;99.90;;;;;;5012285;28;20343;-75
2022/10/09 01:01:39;;;;;;;;;;;12.90;99.90;;;;;;5012211;28;19909;-75
2022/10/09 01:04:05;;;;;;;;;;;12.90;99.90;;;;;;5012452;28;19948;-75
2022/10/09 01:06:51;;;;;;;;;;;12.90;99.90;;;;;;5012415;28;20033;-74
2022/10/09 01:09:18;;;;;;;;;;;12.90;99.90;;;;;;4998297;28;19906;-75
2022/10/09 01:12:02;;;;;;;;;;;12.90;99.90;;;;;;5012367;28;19909;-75
2022/10/09 01:14:45;;;;;;;;;;;12.90;99.90;;;;;;5012323;28;19913;-75
2022/10/09 01:17:24;;;;;;;;;;;13.00;99.90;;;;;;5012106;28;19905;-74
2022/10/09 01:19:50;;;;;;;;;;;13.00;99.90;;;;;;4994656;28;20275;-75
2022/10/09 01:22:21;;;;;;;;;;;13.00;99.90;;;;;;5011451;28;19915;-75
2022/10/09 01:24:50;;;;;;;;;;;13.00;99.90;;;;;;4994083;28;20307;-75
2022/10/09 01:27:23;;;;;;;;;;;13.00;99.90;;;;;;4994507;28;19937;-75
2022/10/09 01:29:53;;;;;;;;;;;13.00;99.90;;;;;;5012344;28;20256;-75
2022/10/09 01:32:20;;;;;;;;;;;13.00;99.90;;;;;;5011827;28;20279;-75
2022/10/09 01:34:46;;;;;;;;;;;13.00;99.90;;;;;;4995278;28;19909;-75
2022/10/09 01:37:12;;;;;;;;;;;13.00;99.90;;;;;;5015655;28;19959;-75
2022/10/09 01:39:38;;;;;;;;;;;13.00;99.90;;;;;;5015616;28;19909;-75
2022/10/09 01:42:04;;;;;;;;;;;13.00;99.90;;;;;;5015557;28;19927;-75
2022/10/09 01:44:31;;;;;;;;;;;13.00;99.90;;;;;;5015591;28;20305;-75
2022/10/09 01:46:57;;;;;;;;;;;13.00;99.90;;;;;;5015686;28;19956;-75
2022/10/09 01:49:37;;;;;;;;;;;13.00;99.90;;;;;;5015539;28;19912;-75
2022/10/09 01:52:03;;;;;;;;;;;13.00;99.90;;;;;;5015221;28;19931;-74
2022/10/09 01:54:33;;;;;;;;;;;13.00;99.90;;;;;;5015570;28;19906;-75
2022/10/09 01:57:01;;;;;;;;;;;13.00;99.90;;;;;;5015115;28;19918;-76
2022/10/09 01:59:27;;;;;;;;;;;13.00;99.90;;;;;;5015278;28;20311;-75
2022/10/09 02:01:55;;;;;;;;;;;13.00;99.90;;;;;;5015211;28;19905;-75
2022/10/09 02:04:22;;;;;;;;;;;13.00;99.90;;;;;;5015181;28;20284;-76
2022/10/09 02:06:47;;;;;;;;;;;13.00;99.90;;;;;;5015189;28;19995;-76
2022/10/09 02:09:14;;;;;;;;;;;13.00;99.90;;;;;;5014845;28;19964;-75
2022/10/09 02:11:41;;;;;;;;;;;12.90;99.90;;;;;;5014980;28;20004;-75
2022/10/09 02:14:06;;;;;;;;;;;12.90;99.90;;;;;;5014720;28;20407;-75
2022/10/09 02:16:43;;;;;;;;;;;13.00;99.90;;;;;;5014721;28;19906;-76
2022/10/09 02:19:15;;;;;;;;;;;12.90;99.90;;;;;;5014847;28;19917;-75
2022/10/09 02:21:45;;;;;;;;;;;12.90;99.90;;;;;;5014776;28;19905;-75
2022/10/09 02:24:14;;;;;;;;;;;12.90;99.90;;;;;;5014727;28;20029;-75
2022/10/09 02:26:40;;;;;;;;;;;12.90;99.90;;;;;;4997413;28;19905;-75
2022/10/09 02:29:06;;;;;;;;;;;12.90;99.90;;;;;;4996933;28;19906;-75
2022/10/09 02:31:33;;;;;;;;;;;12.90;99.90;;;;;;5014740;28;19960;-76
2022/10/09 02:34:10;;;;;;;;;;;12.90;99.90;;;;;;5014601;28;19944;-75
2022/10/09 02:36:37;;;;;;;;;;;12.90;99.90;;;;;;5014660;28;19910;-74
2022/10/09 02:39:03;;;;;;;;;;;12.90;99.90;;;;;;5014466;28;20307;-75
2022/10/09 02:41:29;;;;;;;;;;;12.90;99.90;;;;;;4996839;28;19916;-75
2022/10/09 02:43:54;;;;;;;;;;;12.90;99.90;;;;;;5014619;28;19995;-75
2022/10/09 02:46:20;;;;;;;;;;;12.90;99.90;;;;;;5013954;28;19902;-75
2022/10/09 02:48:46;;;;;;;;;;;12.90;99.90;;;;;;5014548;28;19912;-75
2022/10/09 02:51:11;;;;;;;;;;;12.80;99.90;;;;;;5014169;28;19984;-75
2022/10/09 02:53:37;;;;;;;;;;;12.80;99.90;;;;;;5014260;28;19963;-75
2022/10/09 02:56:02;;;;;;;;;;;12.80;99.90;;;;;;5014030;28;19905;-74
2022/10/09 02:58:32;;;;;;;;;;;12.90;99.90;;;;;;5014122;28;19913;-75
2022/10/09 03:00:57;;;;;;;;;;;12.80;99.90;;;;;;4996643;28;20081;-75
2022/10/09 03:03:23;;;;;;;;;;;12.90;99.90;;;;;;5014273;28;20015;-75
2022/10/09 03:05:57;;;;;;;;;;;12.90;99.90;;;;;;5014277;28;20444;-75
2022/10/09 03:08:23;;;;;;;;;;;12.80;99.90;;;;;;5014225;28;20319;-76
2022/10/09 03:10:48;;;;;;;;;;;12.90;99.90;;;;;;5014045;28;19902;-76
2022/10/09 03:13:14;;;;;;;;;;;12.80;99.90;;;;;;4996413;28;19916;-76
2022/10/09 03:15:39;;;;;;;;;;;12.80;99.90;;;;;;5014051;28;19905;-76
2022/10/09 03:18:05;;;;;;;;;;;12.80;99.90;;;;;;5013834;28;20275;-75
2022/10/09 03:20:31;;;;;;;;;;;12.80;99.90;;;;;;5013751;28;19912;-75
2022/10/09 03:22:56;;;;;;;;;;;12.80;99.90;;;;;;5013588;28;19913;-75
2022/10/09 03:25:22;;;;;;;;;;;12.80;99.90;;;;;;4995989;28;19906;-76
2022/10/09 03:27:48;;;;;;;;;;;12.80;99.90;;;;;;5013467;28;19976;-75
2022/10/09 03:30:14;;;;;;;;;;;12.70;99.90;;;;;;5013809;28;19909;-74
2022/10/09 03:32:39;;;;;;;;;;;12.70;99.90;;;;;;5013548;28;19944;-75
2022/10/09 03:35:05;;;;;;;;;;;12.70;99.90;;;;;;5013530;28;20371;-75
2022/10/09 03:37:31;;;;;;;;;;;12.70;99.90;;;;;;5013407;28;19909;-75
2022/10/09 03:39:57;;;;;;;;;;;12.70;99.90;;;;;;4996001;28;19949;-75
2022/10/09 03:42:22;;;;;;;;;;;12.70;99.90;;;;;;5013467;28;20320;-75
2022/10/09 03:44:48;;;;;;;;;;;12.70;99.90;;;;;;5013410;28;20028;-75
2022/10/09 03:47:13;;;;;;;;;;;12.70;99.90;;;;;;5013435;28;19905;-75
2022/10/09 03:49:39;;;;;;;;;;;12.70;99.90;;;;;;5013537;28;19967;-75
2022/10/09 03:52:04;;;;;;;;;;;12.70;99.90;;;;;;5013212;28;19912;-74
2022/10/09 03:54:30;;;;;;;;;;;12.70;99.90;;;;;;5013178;28;19912;-75
2022/10/09 03:56:55;;;;;;;;;;;12.70;99.90;;;;;;5012646;28;19921;-75
2022/10/09 03:59:21;;;;;;;;;;;12.60;99.90;;;;;;5012700;28;19921;-75
2022/10/09 04:01:46;;;;;;;;;;;12.70;99.90;;;;;;5013035;28;19916;-75
2022/10/09 04:04:12;;;;;;;;;;;12.60;99.90;;;;;;4995367;28;19909;-75
2022/10/09 04:06:37;;;;;;;;;;;12.60;99.90;;;;;;5013011;28;19912;-75
2022/10/09 04:09:03;;;;;;;;;;;12.60;99.90;;;;;;4995311;28;19963;-75
2022/10/09 04:11:28;;;;;;;;;;;12.60;99.90;;;;;;5012998;28;19908;-76
2022/10/09 04:13:54;;;;;;;;;;;12.60;99.90;;;;;;4995376;28;20280;-75
2022/10/09 04:16:19;;;;;;;;;;;12.60;99.90;;;;;;5012843;28;19995;-74
2022/10/09 04:18:46;;;;;;;;;;;12.60;99.90;;;;;;5012849;28;19917;-75
2022/10/09 04:21:12;;;;;;;;;;;12.60;99.90;;;;;;4995266;28;20370;-85
2022/10/09 04:23:38;;;;;;;;;;;12.70;99.90;;;;;;5012819;28;19909;-75
2022/10/09 04:26:04;;;;;;;;;;;12.80;99.90;;;;;;5012897;28;19909;-75
2022/10/09 04:28:30;;;;;;;;;;;12.90;99.90;;;;;;4995159;28;20332;-75
2022/10/09 04:30:58;;;;;;;;;;;12.90;99.90;;;;;;5012665;28;19975;-75
2022/10/09 04:33:25;;;;;;;;;;;12.80;99.90;;;;;;5012697;28;19916;-75
2022/10/09 04:35:51;;;;;;;;;;;12.70;99.90;;;;;;4995079;28;19909;-75
2022/10/09 04:38:17;;;;;;;;;;;12.70;99.90;;;;;;5012852;28;19913;-74
2022/10/09 04:40:42;;;;;;;;;;;12.60;99.90;;;;;;5012689;28;19967;-75
2022/10/09 04:43:08;;;;;;;;;;;12.50;99.90;;;;;;5012596;28;20789;-75
2022/10/09 04:45:37;;;;;;;;;;;12.50;99.90;;;;;;5012492;28;19917;-76
2022/10/09 04:48:03;;;;;;;;;;;12.40;99.90;;;;;;4995042;28;19913;-75
2022/10/09 04:50:28;;;;;;;;;;;12.30;99.90;;;;;;4994972;28;19909;-76
2022/10/09 04:52:54;;;;;;;;;;;12.30;99.90;;;;;;5012338;28;19909;-75
2022/10/09 04:55:19;;;;;;;;;;;12.20;99.90;;;;;;4994933;28;19999;-75
2022/10/09 04:57:45;;;;;;;;;;;12.20;99.90;;;;;;5012208;28;19971;-75
2022/10/09 05:00:11;;;;;;;;;;;12.10;99.90;;;;;;5012374;28;19914;-75
2022/10/09 05:02:36;;;;;;;;;;;12.10;99.90;;;;;;5012112;28;19909;-75
2022/10/09 05:05:02;;;;;;;;;;;12.10;99.90;;;;;;4994695;28;19905;-75
2022/10/09 05:07:27;;;;;;;;;;;12.10;99.90;;;;;;5012333;28;20326;-75
2022/10/09 05:09:54;;;;;;;;;;;12.10;99.90;;;;;;5014810;28;19912;-75
2022/10/09 05:12:19;;;;;;;;;;;12.10;99.90;;;;;;5016255;28;19906;-75
2022/10/09 05:14:45;;;;;;;;;;;12.00;99.90;;;;;;5016137;28;19916;-75
2022/10/09 05:17:10;;;;;;;;;;;12.00;99.90;;;;;;5016036;28;19915;-74
2022/10/09 05:19:36;;;;;;;;;;;11.90;99.90;;;;;;5016111;28;19921;-81
2022/10/09 05:22:01;;;;;;;;;;;11.90;99.90;;;;;;5016386;28;19972;-75
2022/10/09 05:24:27;;;;;;;;;;;11.80;99.90;;;;;;5015726;28;19952;-75
2022/10/09 05:26:53;;;;;;;;;;;11.70;99.90;;;;;;4997995;28;20422;-75
2022/10/09 05:29:19;;;;;;;;;;;11.70;99.90;;;;;;5015941;28;19912;-74
2022/10/09 05:31:44;;;;;;;;;;;11.60;99.90;;;;;;5016291;28;19906;-75
2022/10/09 05:34:10;;;;;;;;;;;11.60;99.90;;;;;;5015931;28;20391;-74
2022/10/09 05:36:35;;;;;;;;;;;11.60;99.90;;;;;;5019243;28;19932;-74
2022/10/09 05:39:01;;;;;;;;;;;11.50;99.90;;;;;;5016334;28;19913;-76
2022/10/09 05:41:28;;;;;;;;;;;11.50;99.90;;;;;;4997694;28;20335;-85
2022/10/09 05:43:54;;;;;;;;;;;11.70;99.90;;;;;;5015626;28;19905;-75
2022/10/09 05:46:22;;;;;;;;;;;11.70;99.90;;;;;;5015485;28;19901;-76
2022/10/09 05:49:06;;;;;;;;;;;11.70;99.90;;;;;;5015318;28;20353;-76
2022/10/09 05:51:32;;;;;;;;;;;11.70;99.90;;;;;;5015349;28;19952;-75
2022/10/09 05:53:58;;;;;;;;;;;11.70;99.90;;;;;;5015187;28;19909;-76
2022/10/09 05:56:28;;;;;;;;;;;11.60;99.90;;;;;;4997626;28;20328;-75
2022/10/09 05:58:54;;;;;;;;;;;11.70;99.90;;;;;;5015279;28;19924;-76
2022/10/09 06:01:20;;;;;;;;;;;11.70;99.90;;;;;;5015007;28;19960;-76
2022/10/09 06:03:50;;;;;;;;;;;11.80;99.90;;;;;;5015076;28;19905;-75
2022/10/09 06:06:15;;;;;;;;;;;12.00;99.90;;;;;;5015553;28;19916;-75
2022/10/09 06:08:41;;;;;;;;;;;12.10;99.90;;;;;;4997764;28;19909;-75
2022/10/09 06:11:20;;;;;;;;;;;12.20;99.90;;;;;;5015304;28;19956;-75
2022/10/09 06:13:46;;;;;;;;;;;12.20;99.90;;;;;;5015185;28;19905;-75
2022/10/09 06:16:12;;;;;;;;;;;12.20;99.90;;;;;;5015190;28;19992;-75
2022/10/09 06:18:38;;;;;;;;;;;12.30;99.90;;;;;;5015258;28;19939;-74
2022/10/09 06:21:04;;;;;;;;;;;12.40;99.90;;;;;;5014270;28;20008;-74
2022/10/09 06:23:30;;;;;;;;;;;12.50;99.90;;;;;;5015051;28;19991;-75
2022/10/09 06:26:10;;;;;;;;;;;12.60;99.90;;;;;;5015290;28;19948;-75
2022/10/09 06:28:35;;;;;;;;;;;12.60;99.90;;;;;;5014990;28;19905;-74
2022/10/09 06:31:02;;;;;;;;;;;12.70;99.90;;;;;;5014985;28;19908;-75
2022/10/09 06:33:28;;;;;;;;;;;12.70;99.90;;;;;;4997382;28;20419;-75
2022/10/09 06:35:57;;;;;;;;;;;12.80;99.90;;;;;;5014442;28;19996;-78
2022/10/09 06:38:22;;;;;;;;;;;12.90;99.90;;;;;;4996972;28;20261;-75
2022/10/09 06:40:48;;;;;;;;;;;12.90;99.90;;;;;;5014354;28;19913;-75
2022/10/09 06:43:13;;;;;;;;;;;12.90;99.90;;;;;;5014968;28;20297;-75
2022/10/09 06:45:39;;;;;;;;;;;13.00;99.90;;;;;;5014821;28;19988;-75
2022/10/09 06:48:04;;;;;;;;;;;13.00;99.50;;;;;;5014622;28;19913;-75
2022/10/09 06:50:33;;;;;;;;;;;13.10;98.90;;;;;;5014348;28;20360;-75
2022/10/09 06:52:58;;;;;;;;;;;13.10;98.20;;;;;;5014114;28;19959;-75
2022/10/09 06:55:24;;;;;;;;;;;13.20;97.60;;;;;;5014129;28;19909;-74
2022/10/09 06:57:49;;;;;;;;;;;13.20;97.10;;;;;;5014233;28;19921;-74
2022/10/09 07:00:15;;;;;;;;;;;13.30;96.90;;;;;;5014363;28;19905;-73
2022/10/09 07:02:41;;;;;;;;;;;13.40;97.00;;;;;;5014627;28;19953;-75
2022/10/09 07:05:07;;;;;;;;;;;13.40;96.40;;;;;;5014868;28;19952;-75
2022/10/09 07:07:32;;;;;;;;;;;13.50;95.20;;;;;;4996866;28;20008;-75
2022/10/09 07:09:58;;;;;;;;;;;13.60;95.60;;;;;;5014415;28;19913;-78
2022/10/09 07:12:23;;;;;;;;;;;13.60;95.00;;;;;;5014197;28;19959;-77
2022/10/09 07:14:48;;;;;;;;;;;13.70;95.40;;;;;;5014114;28;20391;-77
2022/10/09 07:17:14;;;;;;;;;;;13.70;94.50;;;;;;5014138;28;19906;-78
2022/10/09 07:19:39;;;;;;;;;;;13.80;94.10;;;;;;5013807;28;19914;-78
2022/10/09 07:22:10;;;;;;;;;;;13.80;94.40;;;;;;5013830;28;20000;-77
2022/10/09 07:24:35;;;;;;;;;;;13.80;94.50;;;;;;5014107;28;20004;-77
2022/10/09 07:27:01;;;;;;;;;;;13.80;94.20;;;;;;5013836;28;20003;-77
2022/10/09 07:29:27;;;;;;;;;;;13.80;93.40;;;;;;5013835;28;19909;-77
2022/10/09 07:31:52;;;;;;;;;;;13.90;93.90;;;;;;5013789;28;19910;-77
2022/10/09 07:34:18;;;;;;;;;;;13.90;93.80;;;;;;5013826;28;19906;-76
2022/10/09 07:36:43;;;;;;;;;;;13.90;92.60;;;;;;5013072;28;19905;-76
2022/10/09 07:39:09;;;;;;;;;;;13.90;92.90;;;;;;5013045;28;19983;-78
2022/10/09 07:41:35;;;;;;;;;;;13.90;92.70;;;;;;5013285;28;19905;-78
2022/10/09 07:44:01;;;;;;;;;;;14.00;92.40;;;;;;5013173;28;20264;-78
2022/10/09 07:46:27;;;;;;;;;;;14.00;92.60;;;;;;5013416;28;19905;-77
2022/10/09 07:48:52;;;;;;;;;;;14.10;92.50;;;;;;5013613;28;19971;-77
2022/10/09 07:51:25;;;;;;;;;;;14.20;92.10;;;;;;5013335;28;20440;-77
2022/10/09 07:53:51;;;;;;;;;;;14.30;91.80;;;;;;5013452;28;19912;-78
2022/10/09 07:56:17;;;;;;;;;;;14.30;90.60;;;;;;5013055;28;19901;-77
2022/10/09 07:58:47;;;;;;;;;;;14.40;90.80;;;;;;4995540;28;19913;-78
2022/10/09 08:01:13;;;;;;;;;;;14.50;90.40;;;;;;4995557;28;20344;-77
2022/10/09 08:03:38;;;;;;;;;;;14.50;91.20;;;;;;5013271;28;19910;-77
2022/10/09 08:06:04;;;;;;;;;;;14.60;90.90;;;;;;5013257;28;19916;-78
2022/10/09 08:08:29;;;;;;;;;;;14.60;89.10;;;;;;5013234;28;19909;-78
2022/10/09 08:10:55;;;;;;;;;;;14.70;89.00;;;;;;5012794;28;19944;-81
2022/10/09 08:13:20;;;;;;;;;;;14.80;87.80;;;;;;4995484;28;19913;-77
2022/10/09 08:15:46;;;;;;;;;;;14.80;87.80;;;;;;5012919;28;20008;-77
2022/10/09 08:18:12;;;;;;;;;;;14.80;85.30;;;;;;5013020;28;20349;-78
2022/10/09 08:20:38;;;;;;;;;;;14.70;86.00;;;;;;5013244;28;19905;-77
2022/10/09 08:23:03;;;;;;;;;;;14.70;85.60;;;;;;4995318;28;19959;-77
2022/10/09 08:25:32;;;;;;;;;;;14.70;86.10;;;;;;4995397;28;19905;-81
2022/10/09 08:27:58;;;;;;;;;;;14.70;85.30;;;;;;5012880;28;19905;-77
2022/10/09 08:30:23;;;;;;;;;;;14.80;85.50;;;;;;4992564;28;20380;-77
2022/10/09 08:32:49;;;;;;;;;;;14.90;86.10;;;;;;4995358;28;19909;-78
2022/10/09 08:35:14;;;;;;;;;;;15.00;85.20;;;;;;5013262;28;19948;-77
2022/10/09 08:37:40;;;;;;;;;;;15.10;84.60;;;;;;5012898;28;19905;-78
2022/10/09 08:40:06;;;;;;;;;;;15.20;83.90;;;;;;4995363;28;19912;-78
2022/10/09 08:42:37;;;;;;;;;;;15.30;83.30;;;;;;4995282;28;20411;-82
2022/10/09 08:45:02;;;;;;;;;;;15.30;82.90;;;;;;5018148;28;19949;-80
2022/10/09 08:47:36;;;;;;;;;;;15.40;83.80;;;;;;5018423;28;20038;-78
2022/10/09 08:50:02;;;;;;;;;;;15.50;82.10;;;;;;5018421;28;19933;-77
2022/10/09 08:52:28;;;;;;;;;;;15.60;82.10;;;;;;5000680;28;19905;-78
2022/10/09 08:54:57;;;;;;;;;;;15.70;81.10;;;;;;5001752;28;19912;-77
2022/10/09 08:57:25;;;;;;;;;;;15.70;80.90;;;;;;5018797;28;19921;-78
2022/10/09 08:59:51;;;;;;;;;;;15.80;80.90;;;;;;5018908;28;19960;-78
2022/10/09 09:02:22;;;;;;;;;;;15.80;80.30;;;;;;5019016;28;19952;-79
2022/10/09 09:04:54;;;;;;;;;;;15.90;79.80;;;;;;5019111;28;19913;-78
2022/10/09 09:07:25;;;;;;;;;;;15.90;80.40;;;;;;5019432;28;19956;-76
2022/10/09 09:10:04;;;;;;;;;;;15.90;79.60;;;;;;5018963;28;19906;-84
2022/10/09 09:12:52;;;;;;;;;;;15.90;80.50;;;;;;5019143;28;19997;-76
2022/10/09 09:15:36;;;;;;;;;;;16.00;80.20;;;;;;5018793;28;20699;-75
2022/10/09 09:18:01;;;;;;;;;;;16.00;80.90;;;;;;5018927;28;20013;-75
2022/10/09 09:20:50;;;;;;;;;;;16.10;80.20;;;;;;5001366;28;19988;-76
2022/10/09 09:23:16;;;;;;;;;;;16.10;80.10;;;;;;5005689;28;19905;-75
2022/10/09 09:25:42;;;;;;;;;;;16.20;79.50;;;;;;5001428;28;19901;-74
2022/10/09 09:28:13;;;;;;;;;;;16.20;78.30;;;;;;5019081;28;19905;-75
2022/10/09 09:30:43;;;;;;;;;;;16.20;78.90;;;;;;5018934;28;19909;-75
2022/10/09 09:33:27;;;;;;;;;;;16.30;77.90;;;;;;5018897;28;19909;-75
2022/10/09 09:36:21;;;;;;;;;;;16.30;78.50;;;;;;5018027;28;19992;-82
2022/10/09 09:38:47;;;;;;;;;;;16.50;78.60;;;;;;4979984;28;19913;-77
2022/10/09 09:41:13;;;;;;;;;;;16.60;76.20;;;;;;5018642;28;20000;-75
2022/10/09 09:43:38;;;;;;;;;;;16.70;75.50;;;;;;5018685;28;20408;-76
2022/10/09 09:46:09;;;;;;;;;;;16.70;74.10;;;;;;5018646;28;19916;-82
2022/10/09 09:48:35;;;;;;;;;;;17.50;75.10;;;;;;5018851;28;19909;-76
2022/10/09 09:51:05;;;;;;;;;;;17.00;73.80;;;;;;5018365;28;19905;-75
2022/10/09 09:53:36;;;;;;;;;;;17.10;73.90;;;;;;5018395;28;19905;-75
2022/10/09 09:56:02;;;;;;;;;;;17.30;74.40;;;;;;5014781;28;19910;-76
2022/10/09 09:58:47;;;;;;;;;;;17.50;72.40;;;;;;5015007;28;19924;-76
2022/10/09 10:01:24;;;;;;;;;;;17.50;71.00;;;;;;4997719;28;19909;-78
2022/10/09 10:03:51;;;;;;;;;;;17.70;71.00;;;;;;5014608;28;20000;-76
2022/10/09 10:06:19;;;;;;;;;;;17.80;71.20;;;;;;5015217;28;19909;-76
2022/10/09 10:08:45;;;;;;;;;;;17.80;70.60;;;;;;4997885;28;19909;-77
2022/10/09 10:11:15;;;;;;;;;;;17.80;70.00;;;;;;5014796;28;19964;-78
2022/10/09 10:13:47;;;;;;;;;;;17.80;69.50;;;;;;5015189;28;19983;-82
2022/10/09 10:16:20;;;;;;;;;;;17.80;69.70;;;;;;5015382;28;20310;-78
2022/10/09 10:18:45;;;;;;;;;;;17.90;70.30;;;;;;5014390;28;19956;-75
2022/10/09 10:21:12;;;;;;;;;;;17.80;69.10;;;;;;5015306;28;19948;-81
2022/10/09 10:23:43;;;;;;;;;;;17.90;69.00;;;;;;4996926;28;19901;-77
2022/10/09 10:26:16;;;;;;;;;;;17.90;70.10;;;;;;4997153;28;19909;-79
2022/10/09 10:28:51;;;;;;;;;;;18.00;69.20;;;;;;5014742;28;19916;-75
2022/10/09 10:31:31;;;;;;;;;;;18.10;69.40;;;;;;5014370;28;19928;-82
2022/10/09 10:33:56;;;;;;;;;;;18.10;68.80;;;;;;5014325;28;19901;-75
2022/10/09 10:36:24;;;;;;;;;;;18.10;68.70;;;;;;5014506;28;20360;-75
2022/10/09 10:38:57;;;;;;;;;;;18.10;67.70;;;;;;5013849;28;20004;-75
2022/10/09 10:41:29;;;;;;;;;;;18.00;67.10;;;;;;5014044;28;19909;-74
2022/10/09 10:44:05;;;;;;;;;;;17.90;67.10;;;;;;5014315;28;20315;-76
2022/10/09 10:46:37;;;;;;;;;;;17.70;66.50;;;;;;4996441;28;19905;-79
2022/10/09 10:49:02;;;;;;;;;;;17.70;67.10;;;;;;5015038;28;20687;-86
2022/10/09 10:51:38;;;;;;;;;;;17.70;67.50;;;;;;4998812;28;19951;-89
2022/10/09 10:54:22;;;;;;;;;;;17.70;68.50;;;;;;4997226;28;20268;-81
2022/10/09 10:56:48;;;;;;;;;;;17.70;66.50;;;;;;4992781;28;20033;-81
2022/10/09 10:59:33;;;;;;;;;;;17.80;67.80;;;;;;4993856;28;20008;-83
2022/10/09 11:02:11;;;;;;;;;;;17.90;68.30;;;;;;4994637;28;19912;-86
2022/10/09 11:04:52;;;;;;;;;;;17.90;67.20;;;;;;4994267;28;19910;-83
2022/10/09 11:07:30;;;;;;;;;;;17.90;67.10;;;;;;4994086;28;20372;-88
2022/10/09 11:09:55;;;;;;;;;;;17.90;67.60;;;;;;4995849;28;19913;-88
2022/10/09 11:12:39;;;;;;;;;;;18.00;67.80;;;;;;4996502;28;19906;-88
2022/10/09 11:15:22;;;;;;;;;;;18.10;68.50;;;;;;4994826;28;20000;-85
2022/10/09 11:17:56;;;;;;;;;;;18.10;69.20;;;;;;4993573;28;20342;-80
2022/10/09 11:20:43;;;;;;;;;;;18.30;69.00;;;;;;4992647;28;19912;-80
2022/10/09 11:23:20;;;;;;;;;;;18.40;82.20;;;;;;4993499;28;19913;-81
2022/10/09 11:26:00;;;;;;;;;;;18.20;83.80;;;;;;4993778;28;19902;-80
2022/10/09 11:28:28;;;;;;;;;;;18.50;84.90;;;;;;4992491;28;19905;-80
2022/10/09 11:30:58;;;;;;;;;;;18.30;66.80;;;;;;4992558;28;19901;-80
2022/10/09 11:33:28;;;;;;;;;;;18.30;67.60;;;;;;4993902;28;19945;-80
2022/10/09 11:35:59;;;;;;;;;;;18.30;68.50;;;;;;4994080;28;19901;-79
2022/10/09 11:38:28;;;;;;;;;;;18.30;67.90;;;;;;4992703;28;20013;-79
2022/10/09 11:40:54;;;;;;;;;;;18.30;68.40;;;;;;4992351;28;19929;-79
2022/10/09 11:43:23;;;;;;;;;;;18.30;67.70;;;;;;4992750;28;19909;-79
2022/10/09 11:46:02;;;;;;;;;;;18.30;68.90;;;;;;4994011;28;19906;-79
2022/10/09 11:48:42;;;;;;;;;;;18.30;67.30;;;;;;4993633;28;20000;-79
2022/10/09 11:51:07;;;;;;;;;;;18.30;68.10;;;;;;4993398;28;19913;-79
2022/10/09 11:53:35;;;;;;;;;;;18.40;68.20;;;;;;4993274;28;19906;-80
2022/10/09 11:56:01;;;;;;;;;;;18.30;67.90;;;;;;4993310;28;19960;-79
2022/10/09 11:58:27;;;;;;;;;;;18.30;68.80;;;;;;5012633;28;20323;-79
2022/10/09 12:00:54;;;;;;;;;;;18.20;67.70;;;;;;4995205;28;20052;-80
2022/10/09 12:03:28;;;;;;;;;;;18.20;66.90;;;;;;4995064;28;19901;-80
2022/10/09 12:06:02;;;;;;;;;;;18.30;68.10;;;;;;5012992;28;19906;-80
2022/10/09 12:08:28;;;;;;;;;;;18.30;68.10;;;;;;5012937;28;20351;-79
2022/10/09 12:10:55;;;;;;;;;;;18.30;66.50;;;;;;5012893;28;19906;-79
2022/10/09 12:13:30;;;;;;;;;;;18.20;66.90;;;;;;5013004;28;19988;-81
2022/10/09 12:15:57;;;;;;;;;;;18.20;67.50;;;;;;5015554;28;20332;-91
2022/10/09 12:18:42;;;;;;;;;;;18.10;69.20;;;;;;4997074;28;19975;-92
2022/10/09 12:21:22;;;;;;;;;;;18.20;67.50;;;;;;4996868;28;19909;-93
2022/10/09 12:23:48;;;;;;;;;;;18.10;68.80;;;;;;5013335;28;19924;-79
2022/10/09 12:26:14;;;;;;;;;;;18.30;68.90;;;;;;4995051;28;19909;-80
2022/10/09 12:28:44;;;;;;;;;;;18.30;75.10;;;;;;4995331;28;19905;-79
2022/10/09 12:31:18;;;;;;;;;;;18.30;67.90;;;;;;4994871;28;19912;-80
2022/10/09 12:33:46;;;;;;;;;;;18.50;84.80;;;;;;4995092;28;19905;-80
2022/10/09 12:36:21;;;;;;;;;;;18.20;89.40;;;;;;4994992;28;19913;-80
2022/10/09 12:38:47;;;;;;;;;;;18.50;77.40;;;;;;5012527;28;19913;-80
2022/10/09 12:41:15;;;;;;;;;;;18.40;93.00;;;;;;5012729;28;20292;-80
2022/10/09 12:43:44;;;;;;;;;;;18.50;67.30;;;;;;4994801;28;19912;-79
2022/10/09 12:46:09;;;;;;;;;;;18.40;67.40;;;;;;5012695;28;19913;-79
2022/10/09 12:48:40;;;;;;;;;;;17.90;88.50;;;;;;4994905;28;20276;-80
2022/10/09 12:51:21;;;;;;;;;;;18.00;91.40;;;;;;5012522;28;19964;-80
2022/10/09 12:53:47;;;;;;;;;;;18.40;94.20;;;;;;5012629;28;20315;-79
2022/10/09 12:56:13;;;;;;;;;;;18.50;93.50;;;;;;4995418;28;19910;-78
2022/10/09 12:58:42;;;;;;;;;;;18.30;93.90;;;;;;5012659;28;19921;-78
2022/10/09 13:01:12;;;;;;;;;;;18.40;77.60;;;;;;5012649;28;19944;-79
2022/10/09 13:03:42;;;;;;;;;;;18.40;82.70;;;;;;4994969;28;20437;-78
2022/10/09 13:06:27;;;;;;;;;;;18.40;86.40;;;;;;4995005;28;19909;-78
2022/10/09 13:08:55;;;;;;;;;;;18.20;68.00;;;;;;4995093;28;19905;-78
2022/10/09 13:11:23;;;;;;;;;;;18.20;68.20;;;;;;5012538;28;20427;-78
2022/10/09 13:13:49;;;;;;;;;;;18.20;68.30;;;;;;5012444;28;19906;-78
2022/10/09 13:16:15;;;;;;;;;;;18.10;67.60;;;;;;4994924;28;20279;-78
2022/10/09 13:18:41;;;;;;;;;;;18.10;68.60;;;;;;5012278;28;20023;-78
2022/10/09 13:21:21;;;;;;;;;;;18.00;68.10;;;;;;5012491;28;19906;-79
2022/10/09 13:23:47;;;;;;;;;;;17.90;67.80;;;;;;5012524;28;19901;-78
2022/10/09 13:26:23;;;;;;;;;;;17.80;68.50;;;;;;4994603;28;19906;-78
2022/10/09 13:28:48;;;;;;;;;;;17.80;69.60;;;;;;5012223;28;19902;-79
2022/10/09 13:31:14;;;;;;;;;;;17.80;69.10;;;;;;5014671;28;20320;-78
2022/10/09 13:33:40;;;;;;;;;;;17.90;80.00;;;;;;5015896;28;19909;-79
2022/10/09 13:36:05;;;;;;;;;;;17.90;83.40;;;;;;4998014;28;20422;-80
2022/10/09 13:38:33;;;;;;;;;;;;;;;;;;4997816;28;19948;-80
2022/10/09 13:40:59;;;;;;;;;;;;;;;;;;4997749;28;19960;-79
2022/10/09 13:43:26;;;;;;;;;;;17.90;69.50;;;;;;5015396;28;19944;-78
2022/10/09 13:45:52;;;;;;;;;;;17.90;70.20;;;;;;4998229;28;19905;-77
2022/10/09 13:48:18;;;;;;;;;;;17.80;69.20;;;;;;5015520;28;19915;-77
2022/10/09 13:50:43;;;;;;;;;;;17.80;68.60;;;;;;4997999;28;19992;-78
2022/10/09 13:53:09;;;;;;;;;;;17.80;69.20;;;;;;5015824;28;19940;-76
2022/10/09 13:55:35;;;;;;;;;;;17.80;67.90;;;;;;5015114;28;19906;-79
2022/10/09 13:58:01;;;;;;;;;;;17.80;68.00;;;;;;5015024;28;19921;-76
2022/10/09 14:00:26;;;;;;;;;;;17.80;68.80;;;;;;5015251;28;19976;-77
2022/10/09 14:02:52;;;;;;;;;;;17.80;68.50;;;;;;5014797;28;20652;-75
2022/10/09 14:05:17;;;;;;;;;;;17.80;67.90;;;;;;5014963;28;20362;-77
2022/10/09 14:07:43;;;;;;;;;;;17.90;66.90;;;;;;5015152;28;19948;-77
2022/10/09 14:10:08;;;;;;;;;;;17.90;66.60;;;;;;5014923;28;19928;-76
2022/10/09 14:12:34;;;;;;;;;;;17.80;66.90;;;;;;5014605;28;19960;-76
2022/10/09 14:15:00;;;;;;;;;;;17.80;67.20;;;;;;4996054;28;19912;-79
2022/10/09 14:17:25;;;;;;;;;;;17.70;68.70;;;;;;4979451;28;19906;-83
2022/10/09 14:19:51;;;;;;;;;;;17.70;70.30;;;;;;4979058;28;19964;-79
2022/10/09 14:22:16;;;;;;;;;;;17.60;69.70;;;;;;5009310;28;19924;-87
2022/10/09 14:24:42;;;;;;;;;;;17.60;70.20;;;;;;4998053;28;20341;-86